Cato Island, Australia
Current Conditions -  °F | °C
As of 2:00 PM on Friday 19 Dec 2014 (Local Time) from YBUD Reporting Station
Clear Clear  
Wind Chill: 82°   Ceiling: Unl
Heat Index: 85°   Visibility: 6mi
Dew Point: 66°   Wind: 7mph
Humidity: 58%   Direction: 270°W
Pressure: 29.85"   Gusts: NA
Location:  23.25°S, 155.53°E
Report Text: YBUD 190400Z AUTO 27006KT 220V300 9999 // NCD 28/19 Q1011
Loading
Personal Weather Stations






























Interactive Weather Map New forecast layout! Learn more

10-Day Weather Forecast

Advertisements
Track Severe Weather on mobile